Time;durP1;ratioP1;P1;durP2;ratioP2;P2;SDS_P1;SDS_P2;PMS_P1;PMS_P2;Temp;Humidity;BMP_temperature;BMP_pressure;BME280_temperature;BME280_humidity;BME280_pressure;Samples;Min_cycle;Max_cycle;Signal;HPM_P1;HPM_P2
2021/06/03 00:00:34;;;;;;;;;;;14.40;99.90;;;;;;5138581;27;19927;-69
2021/06/03 00:03:02;;;;;;;;;;;14.30;99.90;;;;;;5113828;27;19973;-68
2021/06/03 00:05:31;;;;;;;;;;;14.30;99.90;;;;;;5114327;28;20002;-68
2021/06/03 00:08:02;;;;;;;;;;;14.20;99.90;;;;;;5116861;27;19954;-71
2021/06/03 00:10:33;;;;;;;;;;;14.10;99.90;;;;;;5132574;27;20331;-68
2021/06/03 00:13:07;;;;;;;;;;;14.00;99.90;;;;;;5132977;27;19946;-69
2021/06/03 00:15:37;;;;;;;;;;;14.00;99.90;;;;;;5119464;27;19924;-69
2021/06/03 00:18:05;;;;;;;;;;;14.00;99.90;;;;;;5127837;27;19923;-69
2021/06/03 00:20:34;;;;;;;;;;;13.90;99.90;;;;;;5140421;27;19931;-69
2021/06/03 00:23:02;;;;;;;;;;;13.90;99.90;;;;;;5139972;27;19923;-69
2021/06/03 00:25:31;;;;;;;;;;;13.90;99.90;;;;;;5141217;27;20320;-69
2021/06/03 00:27:59;;;;;;;;;;;13.80;99.90;;;;;;5117449;27;20014;-68
2021/06/03 00:30:27;;;;;;;;;;;13.70;99.90;;;;;;5137854;27;20385;-69
2021/06/03 00:32:56;;;;;;;;;;;13.60;99.90;;;;;;5139922;27;19944;-69
2021/06/03 00:35:24;;;;;;;;;;;13.50;99.90;;;;;;5142711;27;19969;-69
2021/06/03 00:37:52;;;;;;;;;;;13.40;99.90;;;;;;5135981;27;19928;-69
2021/06/03 00:40:22;;;;;;;;;;;13.40;99.90;;;;;;5132377;27;19934;-68
2021/06/03 00:42:50;;;;;;;;;;;13.40;99.90;;;;;;5133300;27;19927;-69
2021/06/03 00:45:19;;;;;;;;;;;13.40;99.90;;;;;;5133659;27;19930;-69
2021/06/03 00:47:46;;;;;;;;;;;13.40;99.90;;;;;;5141431;27;19923;-69
2021/06/03 00:50:17;;;;;;;;;;;13.40;99.90;;;;;;5135934;27;20010;-69
2021/06/03 00:52:53;;;;;;;;;;;13.40;99.90;;;;;;5114972;27;20026;-69
2021/06/03 00:55:23;;;;;;;;;;;13.30;99.90;;;;;;5104388;27;19928;-69
2021/06/03 00:57:52;;;;;;;;;;;13.30;99.90;;;;;;5107272;27;20407;-69
2021/06/03 01:00:21;;;;;;;;;;;13.20;99.90;;;;;;5118820;27;19931;-69
2021/06/03 01:02:49;;;;;;;;;;;13.10;99.90;;;;;;5123524;27;19947;-69
2021/06/03 01:05:21;;;;;;;;;;;13.00;99.90;;;;;;5141012;27;19949;-69
2021/06/03 01:07:50;;;;;;;;;;;12.90;99.90;;;;;;5123290;27;19923;-68
2021/06/03 01:10:23;;;;;;;;;;;12.80;99.90;;;;;;5084477;22;19928;-79
2021/06/03 01:12:56;;;;;;;;;;;12.80;99.90;;;;;;5054875;28;19949;-79
2021/06/03 01:15:25;;;;;;;;;;;12.70;99.90;;;;;;5046587;28;19948;-79
2021/06/03 01:17:54;;;;;;;;;;;12.70;99.90;;;;;;5062964;28;19929;-79
2021/06/03 01:20:25;;;;;;;;;;;12.70;99.90;;;;;;5053552;28;20000;-78
2021/06/03 01:22:54;;;;;;;;;;;12.60;99.90;;;;;;5043855;28;19925;-78
2021/06/03 01:25:25;;;;;;;;;;;12.60;99.90;;;;;;5064096;28;19931;-78
2021/06/03 01:27:53;;;;;;;;;;;12.60;99.90;;;;;;5028490;28;19925;-78
2021/06/03 01:30:27;;;;;;;;;;;12.50;99.90;;;;;;5055962;28;19939;-78
2021/06/03 01:32:59;;;;;;;;;;;12.60;99.90;;;;;;5034654;28;20450;-79
2021/06/03 01:35:29;;;;;;;;;;;12.60;99.90;;;;;;5024713;28;19925;-79
2021/06/03 01:37:57;;;;;;;;;;;12.70;99.90;;;;;;5046338;28;19980;-79
2021/06/03 01:40:28;;;;;;;;;;;12.70;99.90;;;;;;5018417;28;20132;-78
2021/06/03 01:42:57;;;;;;;;;;;12.70;99.90;;;;;;5053395;28;19925;-78
2021/06/03 01:45:26;;;;;;;;;;;12.80;99.90;;;;;;5042028;28;19991;-79
2021/06/03 01:47:55;;;;;;;;;;;12.70;99.90;;;;;;5044404;28;20487;-79
2021/06/03 01:50:25;;;;;;;;;;;12.60;99.90;;;;;;5013360;28;19926;-78
2021/06/03 01:52:57;;;;;;;;;;;12.50;99.90;;;;;;5041901;28;19960;-79
2021/06/03 01:55:27;;;;;;;;;;;12.40;99.90;;;;;;5035691;28;19925;-80
2021/06/03 01:57:56;;;;;;;;;;;12.30;99.90;;;;;;5056897;28;20297;-78
2021/06/03 02:00:32;;;;;;;;;;;12.30;99.90;;;;;;5031665;28;19933;-77
2021/06/03 02:03:01;;;;;;;;;;;12.30;99.90;;;;;;5016032;28;19949;-77
2021/06/03 02:05:35;;;;;;;;;;;12.20;99.90;;;;;;5025523;28;19926;-78
2021/06/03 02:08:04;;;;;;;;;;;12.20;99.90;;;;;;5028276;28;19925;-78
2021/06/03 02:10:42;;;;;;;;;;;12.20;99.90;;;;;;5048816;28;19929;-78
2021/06/03 02:13:14;;;;;;;;;;;12.20;99.90;;;;;;5033002;28;19949;-78
2021/06/03 02:16:14;;;;;;;;;;;12.10;99.90;;;;;;5014216;28;19932;-77
2021/06/03 02:18:48;;;;;;;;;;;12.00;99.90;;;;;;5038562;28;19925;-77
2021/06/03 02:21:18;;;;;;;;;;;12.00;99.90;;;;;;5040551;28;19929;-77
2021/06/03 02:23:47;;;;;;;;;;;12.00;99.90;;;;;;5041725;28;20019;-78
2021/06/03 02:26:17;;;;;;;;;;;12.00;99.90;;;;;;5024491;28;19939;-78
2021/06/03 02:28:49;;;;;;;;;;;12.00;99.90;;;;;;5026727;28;19925;-77
2021/06/03 02:31:17;;;;;;;;;;;12.00;99.90;;;;;;5037127;28;19941;-78
2021/06/03 02:33:46;;;;;;;;;;;12.10;99.90;;;;;;5029964;28;20024;-76
2021/06/03 02:36:15;;;;;;;;;;;12.10;99.90;;;;;;5042649;28;19924;-77
2021/06/03 02:38:43;;;;;;;;;;;12.10;99.90;;;;;;5041327;28;19941;-77
2021/06/03 02:41:13;;;;;;;;;;;12.00;99.90;;;;;;5043480;28;19932;-79
2021/06/03 02:43:45;;;;;;;;;;;12.00;99.90;;;;;;5029483;28;19925;-78
2021/06/03 02:46:15;;;;;;;;;;;11.90;99.90;;;;;;5013945;28;20257;-78
2021/06/03 02:48:46;;;;;;;;;;;11.80;99.90;;;;;;5027674;28;19926;-79
2021/06/03 02:51:14;;;;;;;;;;;11.70;99.90;;;;;;5032191;28;19933;-78
2021/06/03 02:53:44;;;;;;;;;;;11.70;99.90;;;;;;5046370;28;19925;-79
2021/06/03 02:56:19;;;;;;;;;;;11.60;99.90;;;;;;5022123;28;19929;-78
2021/06/03 02:58:51;;;;;;;;;;;11.60;99.90;;;;;;5033528;28;19992;-78
2021/06/03 03:01:21;;;;;;;;;;;11.50;99.90;;;;;;5043955;28;19917;-78
2021/06/03 03:03:50;;;;;;;;;;;11.50;99.90;;;;;;5058826;28;19933;-78
2021/06/03 03:06:21;;;;;;;;;;;11.60;99.90;;;;;;5055219;28;19960;-78
2021/06/03 03:08:54;;;;;;;;;;;11.60;99.90;;;;;;5052794;28;19987;-78
2021/06/03 03:11:23;;;;;;;;;;;11.50;99.90;;;;;;5074008;28;19938;-78
2021/06/03 03:13:52;;;;;;;;;;;11.50;99.90;;;;;;5048055;28;19936;-78
2021/06/03 03:16:21;;;;;;;;;;;11.50;99.90;;;;;;5032915;28;20023;-79
2021/06/03 03:18:51;;;;;;;;;;;11.50;99.90;;;;;;5058894;28;19925;-79
2021/06/03 03:21:20;;;;;;;;;;;11.50;99.90;;;;;;5042029;28;20020;-78
2021/06/03 03:23:49;;;;;;;;;;;11.50;99.90;;;;;;5024620;28;19933;-78
2021/06/03 03:26:19;;;;;;;;;;;11.40;99.90;;;;;;5036498;28;19931;-79
2021/06/03 03:28:48;;;;;;;;;;;11.40;99.90;;;;;;5040290;28;19925;-78
2021/06/03 03:31:17;;;;;;;;;;;11.40;99.90;;;;;;5055322;28;19924;-79
2021/06/03 03:33:49;;;;;;;;;;;11.30;99.90;;;;;;5057216;28;19970;-78
2021/06/03 03:36:19;;;;;;;;;;;11.30;99.90;;;;;;5048958;28;20440;-77
2021/06/03 03:38:50;;;;;;;;;;;11.30;99.90;;;;;;5051588;28;19932;-78
2021/06/03 03:41:18;;;;;;;;;;;11.30;99.90;;;;;;5048758;28;20351;-78
2021/06/03 03:43:48;;;;;;;;;;;11.30;99.90;;;;;;5060753;28;19952;-78
2021/06/03 03:46:18;;;;;;;;;;;11.20;99.90;;;;;;5020142;28;20435;-79
2021/06/03 03:48:51;;;;;;;;;;;11.20;99.90;;;;;;5037809;28;19929;-78
2021/06/03 03:51:20;;;;;;;;;;;11.20;99.90;;;;;;5029667;28;19967;-79
2021/06/03 03:53:49;;;;;;;;;;;11.20;99.90;;;;;;5004868;28;19933;-77
2021/06/03 03:56:22;;;;;;;;;;;11.30;99.90;;;;;;5058011;28;19979;-78
2021/06/03 03:58:51;;;;;;;;;;;11.30;99.90;;;;;;5033441;28;19939;-78
2021/06/03 04:01:23;;;;;;;;;;;11.30;99.90;;;;;;5048737;28;19959;-79
2021/06/03 04:06:51;;;;;;;;;;;11.50;99.90;;;;;;5021756;28;19956;-79
2021/06/03 04:09:22;;;;;;;;;;;11.60;99.90;;;;;;5042571;28;19928;-79
2021/06/03 04:11:51;;;;;;;;;;;11.60;99.90;;;;;;5052687;28;19986;-79
2021/06/03 04:14:19;;;;;;;;;;;11.70;99.90;;;;;;5050201;28;19932;-78
2021/06/03 04:16:52;;;;;;;;;;;11.70;99.90;;;;;;5042910;28;19932;-78
2021/06/03 04:19:22;;;;;;;;;;;11.80;99.90;;;;;;5041778;28;20385;-78
2021/06/03 04:21:51;;;;;;;;;;;11.90;99.90;;;;;;5054656;28;19928;-78
2021/06/03 04:24:19;;;;;;;;;;;12.00;99.90;;;;;;5042797;28;19929;-78
2021/06/03 04:26:47;;;;;;;;;;;12.10;99.90;;;;;;5039499;28;20219;-78
2021/06/03 04:29:15;;;;;;;;;;;12.20;99.90;;;;;;5034735;28;19937;-78
2021/06/03 04:31:43;;;;;;;;;;;12.40;99.90;;;;;;5037847;28;20270;-79
2021/06/03 04:34:13;;;;;;;;;;;12.50;99.90;;;;;;5037070;28;19975;-79
2021/06/03 04:37:06;;;;;;;;;;;12.60;99.90;;;;;;5032257;28;19990;-79
2021/06/03 04:39:34;;;;;;;;;;;12.70;99.90;;;;;;5012972;28;19929;-79
2021/06/03 04:42:03;;;;;;;;;;;12.80;99.90;;;;;;5020104;28;19983;-79
2021/06/03 04:44:32;;;;;;;;;;;12.90;99.90;;;;;;5021670;28;20024;-78
2021/06/03 04:46:59;;;;;;;;;;;13.10;99.90;;;;;;5018933;28;19976;-79
2021/06/03 04:49:49;;;;;;;;;;;13.20;99.90;;;;;;5048006;28;19999;-78
2021/06/03 04:52:25;;;;;;;;;;;13.40;99.90;;;;;;5043941;28;19932;-78
2021/06/03 04:54:53;;;;;;;;;;;13.60;99.90;;;;;;5049960;28;19974;-79
2021/06/03 04:57:22;;;;;;;;;;;13.70;99.90;;;;;;5042434;28;19937;-79
2021/06/03 04:59:50;;;;;;;;;;;13.90;99.90;;;;;;5065044;28;19968;-79
2021/06/03 05:02:19;;;;;;;;;;;14.00;99.90;;;;;;5052309;28;19948;-79
2021/06/03 05:04:48;;;;;;;;;;;14.20;99.90;;;;;;5050646;28;19964;-79
2021/06/03 05:07:22;;;;;;;;;;;14.40;99.90;;;;;;5057337;28;20299;-79
2021/06/03 05:09:50;;;;;;;;;;;14.60;99.90;;;;;;5063127;28;19924;-79
2021/06/03 05:12:19;;;;;;;;;;;14.80;99.90;;;;;;5032602;28;20035;-78
2021/06/03 05:14:46;;;;;;;;;;;15.00;99.90;;;;;;5077211;28;19925;-79
2021/06/03 05:17:17;;;;;;;;;;;15.40;99.90;;;;;;5073054;28;19951;-78
2021/06/03 05:19:46;;;;;;;;;;;15.60;99.90;;;;;;5074771;28;19971;-79
2021/06/03 05:22:15;;;;;;;;;;;16.00;99.90;;;;;;5076645;28;19924;-78
2021/06/03 05:24:48;;;;;;;;;;;16.20;99.90;;;;;;5047181;28;19983;-79
2021/06/03 05:27:21;;;;;;;;;;;16.40;99.90;;;;;;5079993;28;19913;-79
2021/06/03 05:29:51;;;;;;;;;;;16.50;99.90;;;;;;5050867;28;19924;-79
2021/06/03 05:32:21;;;;;;;;;;;16.70;99.90;;;;;;5055976;28;19932;-79
2021/06/03 05:34:50;;;;;;;;;;;16.80;99.90;;;;;;5055550;28;19932;-79
2021/06/03 05:37:19;;;;;;;;;;;17.00;99.90;;;;;;5063060;28;19992;-79
2021/06/03 05:39:50;;;;;;;;;;;17.30;99.90;;;;;;5073017;28;19930;-80
2021/06/03 05:42:20;;;;;;;;;;;17.30;99.90;;;;;;5078386;28;19948;-79
2021/06/03 05:44:48;;;;;;;;;;;17.50;99.90;;;;;;5038282;28;20318;-79
2021/06/03 05:47:16;;;;;;;;;;;17.60;99.90;;;;;;5062267;28;19947;-79
2021/06/03 05:50:11;;;;;;;;;;;17.70;99.90;;;;;;5064188;28;19939;-80
2021/06/03 05:52:41;;;;;;;;;;;18.20;99.90;;;;;;5063068;28;19928;-78
2021/06/03 05:55:12;;;;;;;;;;;18.40;99.90;;;;;;5056641;28;19939;-77
2021/06/03 05:57:41;;;;;;;;;;;18.50;99.70;;;;;;5063756;28;20076;-79
2021/06/03 06:00:12;;;;;;;;;;;18.30;99.30;;;;;;5065152;28;19924;-79
2021/06/03 06:02:53;;;;;;;;;;;18.20;99.40;;;;;;5028479;28;19930;-79
2021/06/03 06:08:59;;;;;;;;;;;18.40;99.60;;;;;;5048010;28;19924;-78
2021/06/03 06:11:30;;;;;;;;;;;18.80;99.50;;;;;;5080472;22;19996;-69
2021/06/03 06:13:58;;;;;;;;;;;18.90;98.70;;;;;;5065697;28;19929;-69
2021/06/03 06:16:50;;;;;;;;;;;19.20;98.90;;;;;;5063386;28;19932;-69
2021/06/03 06:19:17;;;;;;;;;;;19.00;98.10;;;;;;5068112;28;20361;-68
2021/06/03 06:21:45;;;;;;;;;;;18.90;98.40;;;;;;5065926;28;20401;-68
2021/06/03 06:24:13;;;;;;;;;;;19.00;98.40;;;;;;5068594;28;19963;-69
2021/06/03 06:26:42;;;;;;;;;;;19.30;98.60;;;;;;5068746;28;19924;-68
2021/06/03 06:29:09;;;;;;;;;;;19.60;98.60;;;;;;5001807;28;19978;-68
2021/06/03 06:31:37;;;;;;;;;;;19.60;97.10;;;;;;5050289;28;19935;-70
2021/06/03 06:34:05;;;;;;;;;;;19.90;97.90;;;;;;5074447;28;19939;-68
2021/06/03 06:36:32;;;;;;;;;;;20.20;97.50;;;;;;5055896;28;19932;-70
2021/06/03 06:39:01;;;;;;;;;;;20.20;95.70;;;;;;5050627;28;19924;-70
2021/06/03 06:41:28;;;;;;;;;;;20.40;95.30;;;;;;5053776;28;20017;-71
2021/06/03 06:43:57;;;;;;;;;;;20.40;95.20;;;;;;5045248;28;19925;-70
2021/06/03 06:46:25;;;;;;;;;;;21.00;95.00;;;;;;5037272;28;19924;-71
2021/06/03 06:48:52;;;;;;;;;;;21.40;93.70;;;;;;5039219;28;19929;-70
2021/06/03 06:51:20;;;;;;;;;;;21.80;92.90;;;;;;5044376;28;20363;-70
2021/06/03 06:53:48;;;;;;;;;;;22.60;91.10;;;;;;5032348;28;20289;-70
2021/06/03 06:56:15;;;;;;;;;;;23.40;88.50;;;;;;5027063;28;19947;-70
2021/06/03 06:58:43;;;;;;;;;;;24.60;81.50;;;;;;5033842;28;19972;-69
2021/06/03 07:01:36;;;;;;;;;;;24.90;77.40;;;;;;5030636;28;19931;-70
2021/06/03 07:04:05;;;;;;;;;;;26.10;73.20;;;;;;5042202;28;19925;-69
2021/06/03 07:06:33;;;;;;;;;;;25.40;69.10;;;;;;5049058;28;20024;-70
2021/06/03 07:09:01;;;;;;;;;;;27.20;66.90;;;;;;5042498;28;19931;-69
2021/06/03 07:11:29;;;;;;;;;;;27.50;63.00;;;;;;5030581;28;19952;-69
2021/06/03 07:14:16;;;;;;;;;;;27.20;60.90;;;;;;5046844;28;19929;-70
2021/06/03 07:16:44;;;;;;;;;;;28.20;59.50;;;;;;5033741;28;19952;-69
2021/06/03 07:19:17;;;;;;;;;;;28.20;57.70;;;;;;5049506;28;20468;-69
2021/06/03 07:21:45;;;;;;;;;;;27.20;58.60;;;;;;5043613;28;20019;-70
2021/06/03 07:24:12;;;;;;;;;;;28.10;59.30;;;;;;5045555;28;19925;-71
2021/06/03 07:26:40;;;;;;;;;;;30.40;55.70;;;;;;5051143;28;20327;-71
2021/06/03 07:29:08;;;;;;;;;;;30.10;52.30;;;;;;5046534;28;19982;-72
2021/06/03 07:31:35;;;;;;;;;;;30.60;49.90;;;;;;5027521;28;19925;-73
2021/06/03 07:34:04;;;;;;;;;;;30.90;49.80;;;;;;5022543;28;20020;-70
2021/06/03 07:36:33;;;;;;;;;;;31.90;48.60;;;;;;5043524;28;20282;-71
2021/06/03 07:39:03;;;;;;;;;;;30.90;48.40;;;;;;5030805;28;19992;-73
2021/06/03 07:41:31;;;;;;;;;;;33.30;46.80;;;;;;5026388;28;19925;-73
2021/06/03 07:43:59;;;;;;;;;;;32.00;45.60;;;;;;5041920;28;19925;-72
2021/06/03 07:46:28;;;;;;;;;;;30.70;47.40;;;;;;5036055;28;19929;-71
2021/06/03 07:48:55;;;;;;;;;;;30.20;48.40;;;;;;5048703;28;20249;-71
2021/06/03 07:51:23;;;;;;;;;;;32.00;45.60;;;;;;5051110;28;19924;-71
2021/06/03 07:53:52;;;;;;;;;;;30.80;46.30;;;;;;5043161;28;19956;-72
2021/06/03 07:56:19;;;;;;;;;;;30.20;47.00;;;;;;5044992;28;19925;-72
2021/06/03 07:58:47;;;;;;;;;;;30.50;46.90;;;;;;5039626;28;19925;-71
2021/06/03 08:01:21;;;;;;;;;;;32.70;45.20;;;;;;5021698;28;19925;-73
2021/06/03 08:03:49;;;;;;;;;;;31.90;44.00;;;;;;5028241;28;20376;-71
2021/06/03 08:06:21;;;;;;;;;;;30.00;47.30;;;;;;5044296;28;20449;-72
2021/06/03 08:08:55;;;;;;;;;;;30.70;47.80;;;;;;5037883;28;19931;-71
2021/06/03 08:11:22;;;;;;;;;;;31.20;44.50;;;;;;5050138;28;19925;-71
2021/06/03 08:13:51;;;;;;;;;;;30.80;46.20;;;;;;5039715;28;19964;-72
2021/06/03 08:16:20;;;;;;;;;;;30.20;46.20;;;;;;5040475;28;20051;-71
2021/06/03 08:18:48;;;;;;;;;;;30.40;46.30;;;;;;5048195;28;19943;-71
2021/06/03 08:21:16;;;;;;;;;;;30.30;46.10;;;;;;5043746;28;20376;-71
2021/06/03 08:23:44;;;;;;;;;;;29.80;48.20;;;;;;5050091;28;19936;-73
2021/06/03 08:26:14;;;;;;;;;;;30.60;46.90;;;;;;5031058;28;20016;-71
2021/06/03 08:28:42;;;;;;;;;;;30.40;46.00;;;;;;5042783;28;19926;-72
2021/06/03 08:31:10;;;;;;;;;;;31.10;44.70;;;;;;5039014;28;19935;-73
2021/06/03 08:33:38;;;;;;;;;;;32.90;43.80;;;;;;5050290;28;19925;-74
2021/06/03 08:36:06;;;;;;;;;;;31.40;42.70;;;;;;5047159;28;20016;-73
2021/06/03 08:38:35;;;;;;;;;;;31.90;43.50;;;;;;5051370;28;20475;-73
2021/06/03 08:41:07;;;;;;;;;;;33.80;42.50;;;;;;5032379;28;19957;-73
2021/06/03 08:43:36;;;;;;;;;;;33.50;40.00;;;;;;5046144;28;19935;-72
2021/06/03 08:46:04;;;;;;;;;;;33.20;41.90;;;;;;5038867;28;19933;-74
2021/06/03 08:48:32;;;;;;;;;;;30.80;43.70;;;;;;5029728;28;19932;-73
2021/06/03 08:51:01;;;;;;;;;;;31.70;45.00;;;;;;5046808;28;20322;-73
2021/06/03 08:56:21;;;;;;;;;;;32.70;41.90;;;;;;5033801;28;19947;-74
2021/06/03 08:58:52;;;;;;;;;;;32.20;42.30;;;;;;5051119;28;19940;-73
2021/06/03 09:01:21;;;;;;;;;;;33.10;41.60;;;;;;5043327;28;20325;-73
2021/06/03 09:03:49;;;;;;;;;;;34.30;38.20;;;;;;5049823;28;19928;-73
2021/06/03 09:06:21;;;;;;;;;;;33.40;39.90;;;;;;5034028;28;19925;-74
2021/06/03 09:09:14;;;;;;;;;;;33.00;41.00;;;;;;5046175;28;19967;-74
2021/06/03 09:11:43;;;;;;;;;;;33.10;39.70;;;;;;5053580;28;19991;-74
2021/06/03 09:14:16;;;;;;;;;;;32.40;41.80;;;;;;5050451;28;20008;-73
2021/06/03 09:16:50;;;;;;;;;;;32.90;39.80;;;;;;5040333;28;20355;-73
2021/06/03 09:19:18;;;;;;;;;;;33.00;41.00;;;;;;5042663;28;19952;-72
2021/06/03 09:21:47;;;;;;;;;;;33.10;38.50;;;;;;5025620;28;20034;-70
2021/06/03 09:24:15;;;;;;;;;;;33.70;39.80;;;;;;5028022;28;19983;-71
2021/06/03 09:26:48;;;;;;;;;;;37.10;36.60;;;;;;5038049;28;19983;-71
2021/06/03 09:29:20;;;;;;;;;;;34.80;36.20;;;;;;5043869;28;19971;-71
2021/06/03 09:31:48;;;;;;;;;;;33.00;38.90;;;;;;5042244;28;19971;-73
2021/06/03 09:34:17;;;;;;;;;;;32.00;44.20;;;;;;5051383;28;20359;-71
2021/06/03 09:36:46;;;;;;;;;;;30.40;46.20;;;;;;5048968;28;19929;-71
2021/06/03 09:39:22;;;;;;;;;;;29.20;48.80;;;;;;5055062;28;19929;-69
2021/06/03 09:41:52;;;;;;;;;;;29.40;49.80;;;;;;5052131;28;19929;-68
2021/06/03 09:44:26;;;;;;;;;;;28.50;48.80;;;;;;5046559;28;19931;-72
2021/06/03 09:46:55;;;;;;;;;;;28.50;49.50;;;;;;5043215;28;19925;-69
2021/06/03 09:49:24;;;;;;;;;;;27.90;49.60;;;;;;5050223;28;19925;-71
2021/06/03 09:51:54;;;;;;;;;;;27.50;51.20;;;;;;5031371;28;20450;-72
2021/06/03 09:54:23;;;;;;;;;;;28.20;51.00;;;;;;5037018;28;20403;-69
2021/06/03 09:56:52;;;;;;;;;;;28.50;50.70;;;;;;5057872;28;19960;-69
2021/06/03 09:59:21;;;;;;;;;;;28.00;49.10;;;;;;5048205;28;19998;-70
2021/06/03 10:02:00;;;;;;;;;;;27.80;46.80;;;;;;5046657;28;19929;-69
2021/06/03 10:04:32;;;;;;;;;;;27.60;46.20;;;;;;5046562;28;19978;-70
2021/06/03 10:07:02;;;;;;;;;;;27.90;47.70;;;;;;5054103;28;20383;-70
2021/06/03 10:09:46;;;;;;;;;;;27.50;48.70;;;;;;5055065;28;19964;-70
2021/06/03 10:12:25;;;;;;;;;;;27.90;47.20;;;;;;5049499;28;20289;-69
2021/06/03 10:14:54;;;;;;;;;;;28.10;45.70;;;;;;5048240;28;20414;-69
2021/06/03 10:17:26;;;;;;;;;;;28.00;44.80;;;;;;5022053;28;19925;-70
2021/06/03 10:19:56;;;;;;;;;;;29.20;44.00;;;;;;5035506;28;19924;-70
2021/06/03 10:22:25;;;;;;;;;;;31.90;39.80;;;;;;5035477;28;19925;-70
2021/06/03 10:24:54;;;;;;;;;;;33.40;36.30;;;;;;5044808;28;20004;-70
2021/06/03 10:27:24;;;;;;;;;;;31.90;39.10;;;;;;5052104;28;19974;-70
2021/06/03 10:29:51;;;;;;;;;;;32.40;38.60;;;;;;5042841;28;19932;-69
2021/06/03 10:32:20;;;;;;;;;;;31.50;38.30;;;;;;5037487;28;19933;-70
2021/06/03 10:34:51;;;;;;;;;;;31.10;38.00;;;;;;5045046;28;19925;-70
2021/06/03 10:37:19;;;;;;;;;;;31.10;38.30;;;;;;5040803;28;19983;-71
2021/06/03 10:39:50;;;;;;;;;;;32.20;37.70;;;;;;5028315;28;20360;-70
2021/06/03 10:42:18;;;;;;;;;;;31.60;37.60;;;;;;5047787;28;19964;-70
2021/06/03 10:44:47;;;;;;;;;;;30.30;39.40;;;;;;5044531;28;20012;-70
2021/06/03 10:47:14;;;;;;;;;;;29.40;41.20;;;;;;5043821;28;19952;-69
2021/06/03 10:49:47;;;;;;;;;;;28.20;42.40;;;;;;5051055;28;19929;-70
2021/06/03 10:52:17;;;;;;;;;;;27.80;44.40;;;;;;5054986;28;20019;-70
2021/06/03 10:54:46;;;;;;;;;;;27.60;44.50;;;;;;5044398;28;19935;-68
2021/06/03 10:57:15;;;;;;;;;;;27.30;44.20;;;;;;5044495;28;19928;-70
2021/06/03 10:59:43;;;;;;;;;;;27.50;46.30;;;;;;5045005;28;19926;-71
2021/06/03 11:02:36;;;;;;;;;;;27.80;43.50;;;;;;5034367;28;20400;-70
2021/06/03 11:05:21;;;;;;;;;;;28.40;44.30;;;;;;5041370;28;19925;-71
2021/06/03 11:07:50;;;;;;;;;;;28.70;44.90;;;;;;5024602;28;19974;-71
2021/06/03 11:10:26;;;;;;;;;;;27.90;44.50;;;;;;5023706;28;19931;-71
2021/06/03 11:13:11;;;;;;;;;;;28.30;50.10;;;;;;5022915;28;19924;-72
2021/06/03 11:15:58;;;;;;;;;;;29.10;43.60;;;;;;5020736;28;19935;-72
2021/06/03 11:18:41;;;;;;;;;;;30.20;41.60;;;;;;5036258;28;19933;-71
2021/06/03 11:21:09;;;;;;;;;;;29.10;41.60;;;;;;5043772;28;19935;-71
2021/06/03 11:23:47;;;;;;;;;;;28.60;43.60;;;;;;5027279;28;20257;-71
2021/06/03 11:26:34;;;;;;;;;;;27.90;44.30;;;;;;5044012;28;19925;-71
2021/06/03 11:29:09;;;;;;;;;;;28.20;44.00;;;;;;5041313;28;19990;-72
2021/06/03 11:31:37;;;;;;;;;;;29.70;44.80;;;;;;5021269;28;20452;-72
2021/06/03 11:34:05;;;;;;;;;;;30.00;44.40;;;;;;5017867;28;20434;-71
2021/06/03 11:36:33;;;;;;;;;;;29.50;44.30;;;;;;5026953;28;20363;-71
2021/06/03 11:39:03;;;;;;;;;;;29.00;45.20;;;;;;5042316;28;19925;-71
2021/06/03 11:41:33;;;;;;;;;;;28.40;43.80;;;;;;5046672;28;19932;-71
2021/06/03 11:44:14;;;;;;;;;;;28.10;44.00;;;;;;5046917;28;19971;-72
2021/06/03 11:46:59;;;;;;;;;;;27.90;44.00;;;;;;5035743;28;19936;-71
2021/06/03 11:49:34;;;;;;;;;;;27.70;45.20;;;;;;5047513;28;19956;-71
2021/06/03 11:52:06;;;;;;;;;;;27.80;45.70;;;;;;5046005;28;19936;-71
2021/06/03 11:54:49;;;;;;;;;;;27.80;45.60;;;;;;5044337;28;19960;-71
2021/06/03 11:57:18;;;;;;;;;;;27.50;45.60;;;;;;5028304;28;19940;-73
2021/06/03 11:59:53;;;;;;;;;;;27.50;47.00;;;;;;5031958;28;19936;-72
2021/06/03 12:02:46;;;;;;;;;;;27.20;45.60;;;;;;5042789;28;19928;-71
2021/06/03 12:05:18;;;;;;;;;;;27.20;46.00;;;;;;5028399;28;19935;-68
2021/06/03 12:07:47;;;;;;;;;;;27.30;47.80;;;;;;5049802;28;19932;-70
2021/06/03 12:10:16;;;;;;;;;;;27.30;46.30;;;;;;5040489;28;19932;-70
2021/06/03 12:12:45;;;;;;;;;;;27.10;46.50;;;;;;5040295;28;19929;-70
2021/06/03 12:15:17;;;;;;;;;;;27.20;46.60;;;;;;5041344;28;20363;-69
2021/06/03 12:17:44;;;;;;;;;;;27.40;47.30;;;;;;5043368;28;19932;-72
2021/06/03 12:20:14;;;;;;;;;;;27.60;46.80;;;;;;5054099;28;19931;-71
2021/06/03 12:22:41;;;;;;;;;;;27.70;46.30;;;;;;5031399;28;19925;-72
2021/06/03 12:25:10;;;;;;;;;;;27.60;46.40;;;;;;5051194;28;19933;-72
2021/06/03 12:27:38;;;;;;;;;;;27.40;46.70;;;;;;5056234;28;19964;-72
2021/06/03 12:30:14;;;;;;;;;;;27.40;46.70;;;;;;5031401;28;19939;-72
2021/06/03 12:32:42;;;;;;;;;;;27.30;46.30;;;;;;5034946;28;19936;-71
2021/06/03 12:35:10;;;;;;;;;;;27.40;46.20;;;;;;5031294;28;20427;-71
2021/06/03 12:37:38;;;;;;;;;;;27.70;46.40;;;;;;5057225;28;19962;-71
2021/06/03 12:40:08;;;;;;;;;;;27.90;46.30;;;;;;5059501;28;20336;-72
2021/06/03 12:42:36;;;;;;;;;;;28.00;45.40;;;;;;5066331;28;20292;-71
2021/06/03 12:45:05;;;;;;;;;;;28.00;47.20;;;;;;5045446;28;19924;-72
2021/06/03 12:47:37;;;;;;;;;;;27.80;46.50;;;;;;5057994;28;20442;-72
2021/06/03 12:50:10;;;;;;;;;;;27.00;46.30;;;;;;5032933;28;19932;-72
2021/06/03 12:52:39;;;;;;;;;;;27.10;46.80;;;;;;5055688;28;20036;-72
2021/06/03 12:55:07;;;;;;;;;;;27.10;46.50;;;;;;5045739;28;19925;-72
2021/06/03 12:58:00;;;;;;;;;;;27.30;47.50;;;;;;5045930;28;19987;-72
2021/06/03 13:00:28;;;;;;;;;;;27.50;46.30;;;;;;5045699;28;19925;-71
2021/06/03 13:03:07;;;;;;;;;;;27.60;45.70;;;;;;5056914;28;19994;-71
2021/06/03 13:05:36;;;;;;;;;;;27.50;45.80;;;;;;5060893;28;19932;-71
2021/06/03 13:08:04;;;;;;;;;;;27.30;46.30;;;;;;5046081;28;19925;-72
2021/06/03 13:10:33;;;;;;;;;;;27.30;45.50;;;;;;5042183;28;19928;-74
2021/06/03 13:13:03;;;;;;;;;;;27.60;46.30;;;;;;5053923;28;19960;-72
2021/06/03 13:15:34;;;;;;;;;;;27.80;45.80;;;;;;5043542;28;20269;-72
2021/06/03 13:18:05;;;;;;;;;;;27.60;45.20;;;;;;5049995;28;20284;-72
2021/06/03 13:20:36;;;;;;;;;;;27.30;46.10;;;;;;5052464;28;19932;-73
2021/06/03 13:23:05;;;;;;;;;;;27.60;45.70;;;;;;5053056;28;19924;-73
2021/06/03 13:25:37;;;;;;;;;;;28.00;45.90;;;;;;5053178;28;19924;-72
2021/06/03 13:28:05;;;;;;;;;;;27.90;45.50;;;;;;5050176;28;19975;-72
2021/06/03 13:30:37;;;;;;;;;;;27.80;45.70;;;;;;5041554;28;19925;-72
2021/06/03 13:33:10;;;;;;;;;;;27.70;46.00;;;;;;5052887;28;19975;-72
2021/06/03 13:35:40;;;;;;;;;;;27.80;47.10;;;;;;5048186;28;19971;-72
2021/06/03 13:38:08;;;;;;;;;;;27.90;46.20;;;;;;5054343;28;20451;-72
2021/06/03 13:40:36;;;;;;;;;;;27.80;45.70;;;;;;5047285;28;20351;-72
2021/06/03 13:43:08;;;;;;;;;;;27.70;45.20;;;;;;5054028;28;19925;-72
2021/06/03 13:45:37;;;;;;;;;;;27.80;45.60;;;;;;5041683;28;19925;-73
2021/06/03 13:48:06;;;;;;;;;;;28.20;45.00;;;;;;5046003;28;19948;-72
2021/06/03 13:50:39;;;;;;;;;;;28.50;44.30;;;;;;5035115;28;20084;-72
2021/06/03 13:53:09;;;;;;;;;;;28.70;44.60;;;;;;5042757;28;19933;-72
2021/06/03 13:55:43;;;;;;;;;;;28.90;44.40;;;;;;5049385;28;20400;-72
2021/06/03 13:58:29;;;;;;;;;;;29.10;45.20;;;;;;5050291;28;19924;-71
2021/06/03 14:01:05;;;;;;;;;;;28.30;44.80;;;;;;5038331;28;19975;-72
2021/06/03 14:03:36;;;;;;;;;;;28.10;45.40;;;;;;5030380;28;19929;-72
2021/06/03 14:06:06;;;;;;;;;;;28.20;45.40;;;;;;5052540;28;19982;-72
2021/06/03 14:09:00;;;;;;;;;;;28.20;44.50;;;;;;5050328;28;19933;-72
2021/06/03 14:11:42;;;;;;;;;;;28.00;44.30;;;;;;5030905;28;19925;-71
2021/06/03 14:14:13;;;;;;;;;;;28.20;46.00;;;;;;5031814;28;20373;-71
2021/06/03 14:16:49;;;;;;;;;;;28.00;46.20;;;;;;5020778;28;19932;-72
2021/06/03 14:19:43;;;;;;;;;;;27.90;46.00;;;;;;5032753;28;19925;-71
2021/06/03 14:22:18;;;;;;;;;;;27.90;46.70;;;;;;5029310;28;19932;-71
2021/06/03 14:24:46;;;;;;;;;;;27.70;46.50;;;;;;5033458;28;20008;-71
2021/06/03 14:27:15;;;;;;;;;;;27.60;47.20;;;;;;5025763;28;20458;-72
2021/06/03 14:29:45;;;;;;;;;;;27.90;48.00;;;;;;5028995;28;19925;-71
2021/06/03 14:32:14;;;;;;;;;;;27.40;45.80;;;;;;5016412;28;20377;-71
2021/06/03 14:34:55;;;;;;;;;;;27.40;46.80;;;;;;5032319;28;20393;-72
2021/06/03 14:37:41;;;;;;;;;;;27.60;47.10;;;;;;5031444;28;19931;-71
2021/06/03 14:40:13;;;;;;;;;;;27.60;46.80;;;;;;5025052;28;19927;-73
2021/06/03 14:42:42;;;;;;;;;;;27.30;46.50;;;;;;5031517;28;19925;-72
2021/06/03 14:45:12;;;;;;;;;;;27.10;46.40;;;;;;5023812;28;19925;-71
2021/06/03 14:47:40;;;;;;;;;;;27.20;46.60;;;;;;5022852;28;19952;-71